Time;durP1;ratioP1;P1;durP2;ratioP2;P2;SDS_P1;SDS_P2;PMS_P1;PMS_P2;Temp;Humidity;BMP_temperature;BMP_pressure;BME280_temperature;BME280_humidity;BME280_pressure;Samples;Min_cycle;Max_cycle;Signal;HPM_P1;HPM_P2
2023/09/19 12:52:48;;;;;;;;;;;;;;;;;;;;;
2023/09/19 18:14:02;;;;;;;;;;;18.30;75.20;;;17.49;68.33;96252.09;6009137;23;19928;-90
2023/09/19 18:16:33;;;;;;;;;;;18.20;75.90;;;17.50;68.78;96255.72;6060284;23;19932;-91
2023/09/19 18:19:03;;;;;;;;;;;18.20;75.20;;;17.48;68.50;96256.03;6107141;23;20337;-91
2023/09/19 18:41:04;;;;;;;;;;;18.20;75.10;;;17.44;68.85;96245.88;5810003;24;19927;-91
2023/09/19 18:43:37;;;;;;;;;;;18.20;75.50;;;17.45;68.67;96253.06;6037863;23;20336;-91
2023/09/19 18:46:13;;;;;;;;;;;18.20;75.30;;;17.43;68.56;96253.38;6089505;23;19920;-92
2023/09/19 18:48:44;;;;;;;;;;;18.20;75.10;;;17.43;68.36;96250.59;6088817;23;19927;-91
2023/09/19 18:56:23;;;;;;;;;;;18.20;75.00;;;17.43;68.74;96261.69;5917819;24;19923;-91
2023/09/19 18:58:56;;;;;;;;;;;18.20;75.10;;;17.43;68.65;96261.69;5937938;23;20333;-91
2023/09/19 19:01:25;;;;;;;;;;;18.20;75.20;;;17.41;68.53;96261.16;6001540;23;19929;-92
2023/09/19 19:03:56;;;;;;;;;;;18.20;75.20;;;17.43;68.74;96256.16;6036867;23;19921;-91
2023/09/19 19:06:25;;;;;;;;;;;18.20;75.40;;;17.42;68.64;96260.03;6112733;23;19927;-91
2023/09/19 19:08:56;;;;;;;;;;;18.20;75.20;;;17.40;68.10;96255.97;6137328;23;19928;-91
2023/09/19 19:11:29;;;;;;;;;;;18.20;74.80;;;17.38;68.39;96259.03;6088911;23;19921;-91
2023/09/19 19:14:00;;;;;;;;;;;18.10;74.80;;;17.37;68.48;96268.44;6136628;23;19928;-91
2023/09/19 19:16:31;;;;;;;;;;;18.10;75.10;;;17.37;68.43;96257.38;6136570;23;19928;-91
2023/09/19 19:19:03;;;;;;;;;;;18.10;75.00;;;17.36;68.62;96260.47;6136813;23;19920;-91
2023/09/19 19:21:32;;;;;;;;;;;18.10;75.10;;;17.36;68.42;96254.94;6112602;23;19920;-91
2023/09/19 19:24:01;;;;;;;;;;;18.10;75.20;;;17.36;68.41;96250.25;6112927;23;19932;-91
2023/09/19 19:26:32;;;;;;;;;;;18.10;75.20;;;17.35;68.44;96243.06;6112490;23;19921;-91
2023/09/19 19:29:02;;;;;;;;;;;18.10;75.00;;;17.33;68.03;96250.84;6113409;23;19921;-91
2023/09/19 19:31:33;;;;;;;;;;;18.10;74.70;;;17.32;68.23;96252.78;6135698;23;19931;-91
2023/09/19 19:34:02;;;;;;;;;;;18.10;74.70;;;17.32;68.40;96250.03;6136697;23;19921;-91
2023/09/19 19:36:31;;;;;;;;;;;18.10;74.90;;;17.32;68.50;96246.44;6136456;23;20257;-91
2023/09/19 19:39:25;;;;;;;;;;;18.10;75.10;;;17.31;68.78;96253.13;6112700;23;19921;-92
2023/09/19 19:41:54;;;;;;;;;;;18.10;75.20;;;17.32;68.29;96252.00;6112886;23;20364;-91
2023/09/19 19:44:25;;;;;;;;;;;18.10;75.00;;;17.33;68.64;96253.63;6112909;23;19928;-92
2023/09/19 19:55:51;;;;;;;;;;;18.10;75.00;;;17.34;68.45;96258.03;5831502;24;19924;-91
2023/09/19 19:58:24;;;;;;;;;;;18.10;75.10;;;17.33;68.45;96264.69;5883998;24;19922;-91
2023/09/19 20:00:56;;;;;;;;;;;18.10;75.10;;;17.32;68.48;96265.81;5921355;23;19929;-91
2023/09/19 20:03:25;;;;;;;;;;;18.10;75.10;;;17.32;68.35;96260.28;6113567;23;19921;-91
2023/09/19 20:05:56;;;;;;;;;;;18.10;75.00;;;17.32;68.63;96261.09;6113520;23;19920;-91
2023/09/19 20:08:27;;;;;;;;;;;18.10;75.30;;;17.33;68.60;96264.69;6088685;23;20260;-91
2023/09/19 20:11:03;;;;;;;;;;;18.10;75.20;;;17.31;68.22;96265.00;6112403;23;19921;-91
2023/09/19 20:13:34;;;;;;;;;;;18.10;75.00;;;17.32;68.33;96266.63;6111996;23;19935;-91
2023/09/19 20:16:05;;;;;;;;;;;18.10;75.00;;;17.32;68.35;96271.34;6112181;23;19927;-91
2023/09/19 20:18:34;;;;;;;;;;;18.10;75.00;;;17.31;68.31;96275.25;6112221;23;19928;-91
2023/09/19 20:21:09;;;;;;;;;;;18.10;75.00;;;17.31;68.21;96276.06;6112608;23;19921;-91
2023/09/19 20:23:39;;;;;;;;;;;18.10;74.90;;;17.30;68.41;96279.94;6137717;23;19927;-91
2023/09/19 20:26:07;;;;;;;;;;;18.10;75.10;;;17.31;68.43;96280.78;6135331;23;20292;-91
2023/09/19 20:28:39;;;;;;;;;;;18.10;75.00;;;17.30;68.41;96279.94;6112011;23;19936;-91
2023/09/19 20:31:14;;;;;;;;;;;18.10;75.00;;;17.30;68.63;96287.44;6136240;23;19928;-91
2023/09/19 20:33:43;;;;;;;;;;;18.10;74.90;;;17.29;68.37;96283.88;6113092;23;19920;-91
2023/09/19 20:36:14;;;;;;;;;;;18.10;75.00;;;17.30;68.36;96288.25;6136056;23;19925;-91
2023/09/19 20:38:45;;;;;;;;;;;18.10;75.00;;;17.29;68.35;96288.56;6089597;23;19932;-91
2023/09/19 20:41:21;;;;;;;;;;;18.10;75.00;;;17.28;68.31;96286.94;6111740;23;19974;-91
2023/09/19 20:44:34;;;;;;;;;;;;;;;;;;;;;
2023/09/19 20:47:42;;;;;;;;;;;;;;;;;;;;;
2023/09/19 20:51:19;;;;;;;;;;;18.00;74.70;;;17.25;68.14;96298.63;6136565;23;20296;-91
2023/09/19 20:57:54;;;;;;;;;;;18.00;74.80;;;17.22;68.29;96308.38;5957349;24;19922;-92
2023/09/19 21:01:12;;;;;;;;;;;18.00;74.70;;;17.22;68.29;96304.78;6137444;23;19928;-91
2023/09/19 21:14:17;;;;;;;;;;;18.00;75.80;;;17.20;68.29;96320.88;6063025;23;19921;-91
2023/09/19 21:16:48;;;;;;;;;;;18.00;75.00;;;17.20;68.33;96318.13;6112043;23;20336;-91
2023/09/19 21:19:19;;;;;;;;;;;18.00;74.90;;;17.21;68.26;96315.03;6111785;23;19921;-91
2023/09/19 21:37:14;;;;;;;;;;;;;;;;;;;;;
2023/09/19 22:12:41;;;;;;;;;;;17.90;74.80;;;17.12;67.85;96345.38;5889465;23;19930;-91
2023/09/19 22:15:13;;;;;;;;;;;17.90;74.50;;;17.12;67.89;96356.44;6071973;23;19920;-91
2023/09/19 22:29:46;;;;;;;;;;;;;;;;;;;;;
2023/09/19 22:32:50;;;;;;;;;;;17.90;74.70;;;17.13;68.24;96366.38;6038813;23;19928;-92
2023/09/19 22:35:47;;;;;;;;;;;17.90;74.70;;;17.13;68.24;96369.13;6025512;23;20297;-91
2023/09/19 22:38:33;;;;;;;;;;;17.90;74.70;;;17.15;68.51;96371.63;6161152;23;19927;-91
2023/09/19 22:41:20;;;;;;;;;;;17.90;75.20;;;17.14;68.17;96381.84;6137654;23;19924;-91
2023/09/19 22:44:01;;;;;;;;;;;;;;;;;;;;;
2023/09/19 22:46:52;;;;;;;;;;;;;;;;;;;;;
2023/09/19 22:49:52;;;;;;;;;;;17.90;74.70;;;17.14;68.05;96379.06;6137008;23;19920;-91
2023/09/19 22:53:15;;;;;;;;;;;;;;;;;;;;;
2023/09/19 22:56:09;;;;;;;;;;;;;;;;;;;;;
2023/09/19 22:59:29;;;;;;;;;;;17.90;74.70;;;17.15;68.12;96389.00;6115078;23;20363;-92
2023/09/19 23:05:52;;;;;;;;;;;17.90;74.80;;;17.13;68.07;96387.69;6108593;23;19921;-91
2023/09/19 23:09:34;;;;;;;;;;;;;;;;;;;;;
2023/09/19 23:12:27;;;;;;;;;;;17.90;74.70;;;17.13;68.14;96390.47;6114586;23;19928;-91
2023/09/19 23:15:28;;;;;;;;;;;17.90;74.70;;;17.11;68.20;96387.97;6123256;23;19921;-91
2023/09/19 23:18:46;;;;;;;;;;;17.90;74.70;;;17.11;67.96;96387.97;6105677;23;19921;-92
2023/09/19 23:21:54;;;;;;;;;;;17.90;74.60;;;17.11;68.11;96392.72;6111221;23;19928;-91
2023/09/19 23:24:43;;;;;;;;;;;17.90;74.70;;;17.10;68.09;96394.66;6113381;23;19921;-91
2023/09/19 23:27:52;;;;;;;;;;;17.90;74.70;;;17.11;68.14;96396.28;6128209;23;19924;-91
2023/09/19 23:30:47;;;;;;;;;;;17.90;74.80;;;17.08;67.87;96399.69;6112772;23;19926;-91
2023/09/19 23:33:41;;;;;;;;;;;17.90;75.30;;;17.08;68.13;96408.00;6111395;23;19928;-91
2023/09/19 23:36:30;;;;;;;;;;;17.90;74.80;;;17.05;67.89;96405.84;6113650;23;19944;-91
2023/09/19 23:39:45;;;;;;;;;;;17.90;74.50;;;17.06;68.09;96413.00;6136682;23;20381;-91
2023/09/19 23:42:18;;;;;;;;;;;17.90;74.50;;;17.06;67.98;96412.16;6136328;23;19920;-91
2023/09/19 23:45:04;;;;;;;;;;;17.80;74.40;;;17.06;68.14;96407.47;6137491;23;19944;-91
2023/09/19 23:47:57;;;;;;;;;;;17.80;74.50;;;17.05;68.06;96410.53;6115852;23;19927;-91
2023/09/19 23:50:28;;;;;;;;;;;17.80;74.50;;;17.04;68.08;96418.03;6112693;23;20340;-91
2023/09/19 23:53:00;;;;;;;;;;;17.80;74.70;;;17.06;68.09;96414.94;6112106;23;19921;-91
2023/09/19 23:55:30;;;;;;;;;;;17.80;74.60;;;17.05;67.88;96405.00;6089294;23;19925;-91
2023/09/19 23:58:02;;;;;;;;;;;17.80;74.40;;;17.05;67.91;96411.38;6089289;23;19925;-91
